createdAt,value
2018-09-25T00:00:42.755Z,7.40
2018-09-25T00:03:16.275Z,7.42
2018-09-25T00:05:50.516Z,7.33
2018-09-25T00:08:23.982Z,7.19
2018-09-25T00:10:57.511Z,7.21
2018-09-25T00:13:30.916Z,7.20
2018-09-25T00:16:04.530Z,7.14
2018-09-25T00:18:37.975Z,7.11
2018-09-25T00:21:11.748Z,7.09
2018-09-25T00:23:45.239Z,6.96
2018-09-25T00:26:18.898Z,6.93
2018-09-25T00:28:52.476Z,6.84
2018-09-25T00:31:26.175Z,6.82
2018-09-25T00:33:59.625Z,6.84
2018-09-25T00:36:33.103Z,6.79
2018-09-25T00:39:06.771Z,6.75
2018-09-25T00:41:40.491Z,6.76
2018-09-25T00:44:13.976Z,6.67
2018-09-25T00:46:47.571Z,6.58
2018-09-25T00:49:21.107Z,6.63
2018-09-25T00:51:54.734Z,6.64
2018-09-25T00:54:28.232Z,6.57
2018-09-25T00:57:01.624Z,6.53
2018-09-25T00:59:35.148Z,6.57
2018-09-25T01:02:08.635Z,6.48
2018-09-25T01:04:42.405Z,6.42
2018-09-25T01:07:15.951Z,6.40
2018-09-25T01:09:49.609Z,6.44
2018-09-25T01:12:23.186Z,6.37
2018-09-25T01:14:56.879Z,6.41
2018-09-25T01:17:30.386Z,6.30
2018-09-25T01:20:03.987Z,6.30
2018-09-25T01:22:37.560Z,6.29
2018-09-25T01:25:11.023Z,6.32
2018-09-25T01:27:44.647Z,6.48
2018-09-25T01:30:18.240Z,6.30
2018-09-25T01:32:51.719Z,6.21
2018-09-25T01:35:25.319Z,6.14
2018-09-25T01:37:58.835Z,6.08
2018-09-25T01:40:32.277Z,6.10
2018-09-25T01:43:05.916Z,6.16
2018-09-25T01:45:39.571Z,6.26
2018-09-25T01:48:13.091Z,6.15
2018-09-25T01:50:46.592Z,6.13
2018-09-25T01:53:20.238Z,6.02
2018-09-25T01:55:53.722Z,5.98
2018-09-25T01:58:27.195Z,5.90
2018-09-25T02:01:00.690Z,5.89
2018-09-25T02:03:34.087Z,5.87
2018-09-25T02:06:07.750Z,5.83
2018-09-25T02:08:41.934Z,5.88
2018-09-25T02:11:15.476Z,5.75
2018-09-25T02:13:49.034Z,5.68
2018-09-25T02:16:22.620Z,5.57
2018-09-25T02:18:56.768Z,5.56
2018-09-25T02:21:30.337Z,5.56
2018-09-25T02:24:04.023Z,5.58
2018-09-25T02:26:37.511Z,5.56
2018-09-25T02:29:11.191Z,5.64
2018-09-25T02:31:44.701Z,5.59
2018-09-25T02:34:18.224Z,5.53
2018-09-25T02:36:51.752Z,5.47
2018-09-25T02:39:25.315Z,5.46
2018-09-25T02:41:59.478Z,5.44
2018-09-25T02:44:32.980Z,5.44
2018-09-25T02:47:06.563Z,5.41
2018-09-25T02:49:40.107Z,5.42
2018-09-25T02:52:13.587Z,5.32
2018-09-25T02:54:47.268Z,5.39
2018-09-25T02:57:20.679Z,5.42
2018-09-25T02:59:54.317Z,5.50
2018-09-25T03:02:27.903Z,5.48
2018-09-25T03:05:01.575Z,5.57
2018-09-25T03:07:35.022Z,5.22
2018-09-25T03:10:08.531Z,5.09
2018-09-25T03:12:42.232Z,4.82
2018-09-25T03:15:15.741Z,4.86
2018-09-25T03:17:49.211Z,4.88
2018-09-25T03:20:22.790Z,4.88
2018-09-25T03:22:56.362Z,5.11
2018-09-25T03:25:29.767Z,5.21
2018-09-25T03:28:03.508Z,5.09
2018-09-25T03:30:36.935Z,4.79
2018-09-25T03:33:10.492Z,4.69
2018-09-25T03:35:44.113Z,4.70
2018-09-25T03:38:17.707Z,4.60
2018-09-25T03:40:51.420Z,4.65
2018-09-25T03:43:24.959Z,4.72
2018-09-25T03:45:58.456Z,5.21
2018-09-25T03:48:32.086Z,5.15
2018-09-25T03:51:05.553Z,5.05
2018-09-25T03:53:38.962Z,4.77
2018-09-25T03:56:12.451Z,4.92
2018-09-25T03:58:46.200Z,4.78
2018-09-25T04:01:19.835Z,4.78
2018-09-25T04:03:53.397Z,4.74
2018-09-25T04:06:26.856Z,4.72
2018-09-25T04:09:00.496Z,4.79
2018-09-25T04:11:34.228Z,4.68
2018-09-25T04:14:07.741Z,4.59
2018-09-25T04:16:41.398Z,4.53
2018-09-25T04:19:14.967Z,4.36
2018-09-25T04:21:48.548Z,4.39
2018-09-25T04:24:22.058Z,4.40
2018-09-25T04:26:55.623Z,4.39
2018-09-25T04:29:29.266Z,4.29
2018-09-25T04:32:02.654Z,4.37
2018-09-25T04:34:36.174Z,4.45
2018-09-25T04:37:09.734Z,4.36
2018-09-25T04:39:43.255Z,4.32
2018-09-25T04:42:17.000Z,4.20
2018-09-25T04:44:50.480Z,4.13
2018-09-25T04:47:24.059Z,4.17
2018-09-25T04:49:57.667Z,4.16
2018-09-25T04:52:31.342Z,4.15
2018-09-25T04:55:04.920Z,4.12
2018-09-25T04:57:38.603Z,4.13
2018-09-25T05:00:12.156Z,4.11
2018-09-25T05:02:45.511Z,4.03
2018-09-25T05:05:19.203Z,4.04
2018-09-25T05:07:52.643Z,3.98
2018-09-25T05:10:26.291Z,3.94
2018-09-25T05:12:59.852Z,3.94
2018-09-25T05:15:33.390Z,4.06
2018-09-25T05:18:07.039Z,4.06
2018-09-25T05:20:40.429Z,4.11
2018-09-25T05:23:14.386Z,4.02
2018-09-25T05:25:47.918Z,3.97
2018-09-25T05:28:21.483Z,3.84
2018-09-25T05:30:55.157Z,3.82
2018-09-25T05:33:28.763Z,3.93
2018-09-25T05:36:02.202Z,4.01
2018-09-25T05:38:35.600Z,4.10
2018-09-25T05:41:09.173Z,4.26
2018-09-25T05:43:42.722Z,4.41
2018-09-25T05:46:16.148Z,4.43
2018-09-25T05:48:49.856Z,4.40
2018-09-25T05:51:23.222Z,4.47
2018-09-25T05:53:56.655Z,4.48
2018-09-25T05:56:30.305Z,4.57
2018-09-25T05:59:03.822Z,4.67
2018-09-25T06:01:37.411Z,4.74
2018-09-25T06:04:10.891Z,4.74
2018-09-25T06:06:44.556Z,4.80
2018-09-25T06:09:17.960Z,4.86
2018-09-25T06:11:51.372Z,4.80
2018-09-25T06:14:24.915Z,5.00
2018-09-25T06:16:58.380Z,5.05
2018-09-25T06:19:31.987Z,4.93
2018-09-25T06:22:05.664Z,5.17
2018-09-25T06:24:39.138Z,5.14
2018-09-25T06:27:12.591Z,5.16
2018-09-25T06:29:46.090Z,5.32
2018-09-25T06:32:19.664Z,5.68
2018-09-25T06:34:53.148Z,5.70
2018-09-25T06:37:26.862Z,5.70
2018-09-25T06:40:00.124Z,5.73
2018-09-25T06:42:33.611Z,6.01
2018-09-25T06:45:07.215Z,5.94
2018-09-25T06:47:40.616Z,6.07
2018-09-25T06:50:14.194Z,6.26
2018-09-25T06:52:47.698Z,6.42
2018-09-25T06:55:21.332Z,6.31
2018-09-25T06:57:54.779Z,6.32
2018-09-25T07:00:28.240Z,6.52
2018-09-25T07:03:01.852Z,6.47
2018-09-25T07:05:35.351Z,6.74
2018-09-25T07:08:08.895Z,6.89
2018-09-25T07:10:42.467Z,7.10
2018-09-25T07:13:16.028Z,7.19
2018-09-25T07:15:49.637Z,7.17
2018-09-25T07:18:23.292Z,7.08
2018-09-25T07:20:56.688Z,7.12
2018-09-25T07:23:30.211Z,7.18
2018-09-25T07:26:03.698Z,7.38
2018-09-25T07:28:37.147Z,7.55
2018-09-25T07:31:10.807Z,7.68
2018-09-25T07:33:44.279Z,7.63
2018-09-25T07:36:17.791Z,7.70
2018-09-25T07:38:51.211Z,7.76
2018-09-25T07:41:24.907Z,7.93
2018-09-25T07:43:58.537Z,7.98
2018-09-25T07:46:32.122Z,7.96
2018-09-25T07:49:05.875Z,8.11
2018-09-25T07:51:39.408Z,8.38
2018-09-25T07:54:13.055Z,8.65
2018-09-25T07:56:46.622Z,8.74
2018-09-25T07:59:20.112Z,8.76
2018-09-25T08:01:53.551Z,8.74
2018-09-25T08:04:27.066Z,8.97
2018-09-25T08:07:00.546Z,9.16
2018-09-25T08:09:34.049Z,9.30
2018-09-25T08:12:07.712Z,9.29
2018-09-25T08:14:41.408Z,9.41
2018-09-25T08:17:15.079Z,9.38
2018-09-25T08:19:48.535Z,9.40
2018-09-25T08:22:22.068Z,9.56
2018-09-25T08:24:55.588Z,9.62
2018-09-25T08:27:29.052Z,9.79
2018-09-25T08:30:02.543Z,9.86
2018-09-25T08:32:36.031Z,10.10
2018-09-25T08:35:09.599Z,10.50
2018-09-25T08:37:43.046Z,10.48
2018-09-25T08:40:16.597Z,10.48
2018-09-25T08:42:50.066Z,10.42
2018-09-25T08:45:23.456Z,10.67
2018-09-25T08:47:57.040Z,10.73
2018-09-25T08:50:30.687Z,10.76
2018-09-25T08:53:04.247Z,10.71
2018-09-25T08:55:37.874Z,10.63
2018-09-25T08:58:11.728Z,10.80
2018-09-25T09:00:45.396Z,11.04
2018-09-25T09:03:19.223Z,11.00
2018-09-25T09:05:52.888Z,11.02
2018-09-25T09:08:26.531Z,11.24
2018-09-25T09:11:00.063Z,11.10
2018-09-25T09:13:33.551Z,11.30
2018-09-25T09:16:07.115Z,11.23
2018-09-25T09:18:40.631Z,11.44
2018-09-25T09:21:14.220Z,11.42
2018-09-25T09:23:47.868Z,11.66
2018-09-25T09:26:21.478Z,11.52
2018-09-25T09:28:55.081Z,11.41
2018-09-25T09:31:28.590Z,11.75
2018-09-25T09:34:02.193Z,11.81
2018-09-25T09:36:35.771Z,11.87
2018-09-25T09:39:09.975Z,11.79
2018-09-25T09:41:43.684Z,11.66
2018-09-25T09:44:16.927Z,11.92
2018-09-25T09:46:50.588Z,11.96
2018-09-25T09:49:24.152Z,12.18
2018-09-25T09:51:58.320Z,12.33
2018-09-25T09:54:32.045Z,12.16
2018-09-25T09:57:05.547Z,12.11
2018-09-25T09:59:39.194Z,12.32
2018-09-25T10:02:12.696Z,12.27
2018-09-25T10:04:46.120Z,12.06
2018-09-25T10:07:19.754Z,12.26
2018-09-25T10:09:53.963Z,12.34
2018-09-25T10:12:27.574Z,12.20
2018-09-25T10:15:00.969Z,12.43
2018-09-25T10:17:34.437Z,12.44
2018-09-25T10:20:07.870Z,12.51
2018-09-25T10:22:41.279Z,12.68
2018-09-25T10:25:14.715Z,12.84
2018-09-25T10:27:49.776Z,13.00
2018-09-25T10:30:23.927Z,13.06
2018-09-25T10:32:57.558Z,12.92
2018-09-25T10:35:31.065Z,13.05
2018-09-25T10:38:04.455Z,12.93
2018-09-25T10:40:38.021Z,13.01
2018-09-25T10:43:11.616Z,13.21
2018-09-25T10:45:46.917Z,13.41
2018-09-25T10:48:20.474Z,13.12
2018-09-25T10:50:53.932Z,13.03
2018-09-25T10:53:29.772Z,13.01
2018-09-25T10:56:03.353Z,13.24
2018-09-25T10:58:37.005Z,13.30
2018-09-25T11:01:12.011Z,13.24
2018-09-25T11:03:45.469Z,13.43
2018-09-25T11:09:03.697Z,13.66
2018-09-25T11:11:37.227Z,13.86
2018-09-25T11:14:12.603Z,13.86
2018-09-25T11:16:47.840Z,13.83
2018-09-25T11:19:21.448Z,13.66
2018-09-25T11:21:54.958Z,13.48
2018-09-25T11:24:28.461Z,13.92
2018-09-25T11:27:01.891Z,13.95
2018-09-25T11:29:35.546Z,14.16
2018-09-25T11:32:09.171Z,13.79
2018-09-25T11:34:42.857Z,13.67
2018-09-25T11:37:16.442Z,13.65
2018-09-25T11:39:49.911Z,13.75
2018-09-25T11:42:23.539Z,13.83
2018-09-25T11:44:57.127Z,13.91
2018-09-25T11:47:30.667Z,14.06
2018-09-25T11:50:04.152Z,13.80
2018-09-25T11:52:37.663Z,13.86
2018-09-25T11:55:11.427Z,13.79
2018-09-25T11:57:44.972Z,14.15
2018-09-25T12:00:18.487Z,13.95
2018-09-25T12:02:52.060Z,13.81
2018-09-25T12:05:25.687Z,14.23
2018-09-25T12:07:59.352Z,14.40
2018-09-25T12:10:32.876Z,14.37
2018-09-25T12:13:06.431Z,14.30
2018-09-25T12:15:40.002Z,14.11
2018-09-25T12:18:13.583Z,14.44
2018-09-25T12:20:47.182Z,14.55
2018-09-25T12:23:21.451Z,14.88
2018-09-25T12:25:54.903Z,14.55
2018-09-25T12:28:28.384Z,14.61
2018-09-25T12:31:01.996Z,14.63
2018-09-25T12:33:35.493Z,14.87
2018-09-25T12:36:09.158Z,14.81
2018-09-25T12:38:42.756Z,15.12
2018-09-25T12:41:16.423Z,15.07
2018-09-25T12:43:49.915Z,14.70
2018-09-25T12:46:23.360Z,14.82
2018-09-25T12:48:56.812Z,14.52
2018-09-25T12:51:30.536Z,14.76
2018-09-25T12:54:03.943Z,14.95
2018-09-25T12:56:37.848Z,15.08
2018-09-25T12:59:11.343Z,15.30
2018-09-25T13:01:44.880Z,15.00
2018-09-25T13:04:18.516Z,14.57
2018-09-25T13:06:52.203Z,14.59
2018-09-25T13:09:25.891Z,14.51
2018-09-25T13:11:59.304Z,14.46
2018-09-25T13:14:33.031Z,14.37
2018-09-25T13:17:06.471Z,14.63
2018-09-25T13:19:40.026Z,14.62
2018-09-25T13:22:13.596Z,14.56
2018-09-25T13:24:47.093Z,14.63
2018-09-25T13:27:20.547Z,14.73
2018-09-25T13:29:54.253Z,14.61
2018-09-25T13:32:27.745Z,14.61
2018-09-25T13:35:01.181Z,14.78
2018-09-25T13:37:34.695Z,14.82
2018-09-25T13:40:08.243Z,15.10
2018-09-25T13:42:41.922Z,15.06
2018-09-25T13:45:15.392Z,14.70
2018-09-25T13:47:48.832Z,14.74
2018-09-25T13:50:22.418Z,14.68
2018-09-25T13:52:55.935Z,14.72
2018-09-25T13:55:29.467Z,14.70
2018-09-25T13:58:02.960Z,14.74
2018-09-25T14:00:36.519Z,14.47
2018-09-25T14:03:09.944Z,14.58
2018-09-25T14:05:43.422Z,14.84
2018-09-25T14:08:17.006Z,14.78
2018-09-25T14:10:50.604Z,14.85
2018-09-25T14:13:24.073Z,14.92
2018-09-25T14:15:57.554Z,14.62
2018-09-25T14:18:31.079Z,14.81
2018-09-25T14:21:04.524Z,14.75
2018-09-25T14:23:37.976Z,14.78
2018-09-25T14:26:11.599Z,14.61
2018-09-25T14:28:45.090Z,14.59
2018-09-25T14:31:18.845Z,14.70
2018-09-25T14:33:52.387Z,14.72
2018-09-25T14:36:26.011Z,14.81
2018-09-25T14:38:59.651Z,14.87
2018-09-25T14:41:33.655Z,14.87
2018-09-25T14:44:07.333Z,15.03
2018-09-25T14:46:40.855Z,15.05
2018-09-25T14:49:14.755Z,15.23
2018-09-25T14:51:48.288Z,14.95
2018-09-25T14:54:21.870Z,14.99
2018-09-25T14:56:55.202Z,14.85
2018-09-25T14:59:28.721Z,14.79
2018-09-25T15:02:02.200Z,14.93
2018-09-25T15:04:35.930Z,14.71
2018-09-25T15:07:09.448Z,14.73
2018-09-25T15:09:42.893Z,14.59
2018-09-25T15:12:16.613Z,14.74
2018-09-25T15:14:50.045Z,14.69
2018-09-25T15:17:23.646Z,14.62
2018-09-25T15:19:57.053Z,14.73
2018-09-25T15:22:30.565Z,14.76
2018-09-25T15:25:03.972Z,14.63
2018-09-25T15:27:37.482Z,14.63
2018-09-25T15:30:11.718Z,14.52
2018-09-25T15:32:45.529Z,14.54
2018-09-25T15:35:18.998Z,14.56
2018-09-25T15:37:53.045Z,14.51
2018-09-25T15:40:26.652Z,14.55
2018-09-25T15:43:00.031Z,14.47
2018-09-25T15:45:33.531Z,14.49
2018-09-25T15:48:07.229Z,14.43
2018-09-25T15:50:40.643Z,14.48
2018-09-25T15:53:14.218Z,14.39
2018-09-25T15:55:47.702Z,14.31
2018-09-25T15:58:21.222Z,14.29
2018-09-25T16:00:54.791Z,14.34
2018-09-25T16:03:28.379Z,14.19
2018-09-25T16:06:01.997Z,14.20
2018-09-25T16:08:35.593Z,14.20
2018-09-25T16:11:09.078Z,14.16
2018-09-25T16:13:42.685Z,14.13
2018-09-25T16:16:16.815Z,14.07
2018-09-25T16:18:50.316Z,14.03
2018-09-25T16:21:23.993Z,14.06
2018-09-25T16:23:57.388Z,14.01
2018-09-25T16:26:30.845Z,14.02
2018-09-25T16:29:04.476Z,13.95
2018-09-25T16:31:38.035Z,13.89
2018-09-25T16:34:11.746Z,13.81
2018-09-25T16:36:45.389Z,13.79
2018-09-25T16:39:18.806Z,13.76
2018-09-25T16:41:52.500Z,13.64
2018-09-25T16:44:26.178Z,13.49
2018-09-25T16:46:59.885Z,13.42
2018-09-25T16:49:33.387Z,13.37
2018-09-25T16:52:06.880Z,13.26
2018-09-25T16:54:40.572Z,13.17
2018-09-25T16:57:14.115Z,13.07
2018-09-25T16:59:47.850Z,12.94
2018-09-25T17:02:21.345Z,12.84
2018-09-25T17:04:54.963Z,12.80
2018-09-25T17:07:28.486Z,12.73
2018-09-25T17:10:02.209Z,12.60
2018-09-25T17:12:35.686Z,12.53
2018-09-25T17:15:09.131Z,12.44
2018-09-25T17:17:42.805Z,12.41
2018-09-25T17:20:16.169Z,12.30
2018-09-25T17:22:56.599Z,12.22
2018-09-25T17:25:30.188Z,12.09
2018-09-25T17:28:03.831Z,11.97
2018-09-25T17:30:37.423Z,11.84
2018-09-25T17:33:11.049Z,11.71
2018-09-25T17:35:44.546Z,11.55
2018-09-25T17:38:17.987Z,11.51
2018-09-25T17:40:51.516Z,11.45
2018-09-25T17:43:24.984Z,11.40
2018-09-25T17:45:58.448Z,11.38
2018-09-25T17:48:32.035Z,11.38
2018-09-25T17:51:05.612Z,11.28
2018-09-25T17:53:39.239Z,11.27
2018-09-25T17:56:13.102Z,11.18
2018-09-25T17:58:46.844Z,11.18
2018-09-25T18:01:20.416Z,11.14
2018-09-25T18:03:53.986Z,11.10
2018-09-25T18:06:27.694Z,11.08
2018-09-25T18:09:01.170Z,10.92
2018-09-25T18:11:34.806Z,10.86
2018-09-25T18:14:08.403Z,10.78
2018-09-25T18:16:41.942Z,10.74
2018-09-25T18:19:15.584Z,10.68
2018-09-25T18:21:49.228Z,10.61
2018-09-25T18:24:22.731Z,10.53
2018-09-25T18:26:56.395Z,10.45
2018-09-25T18:29:29.883Z,10.41
2018-09-25T18:32:03.480Z,10.36
2018-09-25T18:34:36.974Z,10.28
2018-09-25T18:37:10.448Z,10.08
2018-09-25T18:39:44.072Z,9.92
2018-09-25T18:42:17.640Z,9.84
2018-09-25T18:44:51.017Z,9.71
2018-09-25T18:47:24.594Z,9.71
2018-09-25T18:49:58.031Z,9.82
2018-09-25T18:52:31.559Z,9.91
2018-09-25T18:55:04.999Z,9.97
2018-09-25T18:57:38.591Z,9.96
2018-09-25T19:00:12.314Z,9.93
2018-09-25T19:02:45.863Z,9.88
2018-09-25T19:05:19.396Z,9.83
2018-09-25T19:07:52.813Z,9.72
2018-09-25T19:10:26.325Z,9.62
2018-09-25T19:12:59.731Z,9.61
2018-09-25T19:15:33.961Z,9.49
2018-09-25T19:18:07.428Z,9.42
2018-09-25T19:20:41.074Z,9.29
2018-09-25T19:23:14.570Z,9.24
2018-09-25T19:25:48.188Z,9.12
2018-09-25T19:28:21.692Z,9.07
2018-09-25T19:30:55.240Z,8.98
2018-09-25T19:33:28.747Z,8.94
2018-09-25T19:36:02.257Z,8.91
2018-09-25T19:38:36.103Z,8.93
2018-09-25T19:41:09.733Z,8.90
2018-09-25T19:43:43.224Z,8.92
2018-09-25T19:46:16.655Z,8.92
2018-09-25T19:48:50.111Z,8.85
2018-09-25T19:51:23.832Z,8.84
2018-09-25T19:53:57.279Z,8.73
2018-09-25T19:56:30.811Z,8.70
2018-09-25T19:59:04.457Z,8.63
2018-09-25T20:01:37.895Z,8.75
2018-09-25T20:04:11.543Z,8.85
2018-09-25T20:06:49.174Z,8.89
2018-09-25T20:15:01.267Z,8.93
2018-09-25T20:17:38.111Z,8.95
2018-09-25T20:20:14.818Z,8.93
2018-09-25T20:22:50.910Z,8.80
2018-09-25T20:25:27.793Z,8.86
2018-09-25T20:28:03.358Z,8.83
2018-09-25T20:30:40.244Z,8.67
2018-09-25T20:33:36.869Z,8.48
2018-09-25T20:41:36.534Z,8.36
2018-09-25T20:44:13.255Z,8.38
2018-09-25T20:46:50.090Z,8.49
2018-09-25T20:49:36.786Z,8.55
2018-09-25T20:52:13.492Z,8.47
2018-09-25T20:54:50.155Z,8.45
2018-09-25T20:57:27.167Z,8.45
2018-09-25T21:00:04.255Z,8.29
2018-09-25T21:02:45.259Z,8.28
2018-09-25T21:05:18.738Z,8.32
2018-09-25T21:07:52.552Z,8.26
2018-09-25T21:10:26.137Z,8.29
2018-09-25T21:12:59.939Z,8.36
2018-09-25T21:15:33.611Z,8.35
2018-09-25T21:18:07.152Z,8.41
2018-09-25T21:20:40.936Z,8.42
2018-09-25T21:23:14.378Z,8.26
2018-09-25T21:25:47.939Z,8.12
2018-09-25T21:28:21.700Z,8.09
2018-09-25T21:30:55.380Z,8.00
2018-09-25T21:33:28.948Z,7.91
2018-09-25T21:36:02.565Z,8.01
2018-09-25T21:38:36.097Z,8.29
2018-09-25T21:41:09.646Z,8.12
2018-09-25T21:43:43.211Z,8.15
2018-09-25T21:46:16.778Z,7.86
2018-09-25T21:48:50.421Z,7.81
2018-09-25T21:51:24.317Z,7.75
2018-09-25T21:53:57.713Z,7.81
2018-09-25T21:56:31.324Z,7.75
2018-09-25T22:02:49.384Z,7.34
2018-09-25T22:05:22.920Z,7.37
2018-09-25T22:07:56.410Z,7.28
2018-09-25T22:10:29.976Z,7.14
2018-09-25T22:13:03.499Z,7.01
2018-09-25T22:15:37.014Z,6.91
2018-09-25T22:18:10.603Z,6.78
2018-09-25T22:20:44.183Z,6.85
2018-09-25T22:23:18.024Z,6.82
2018-09-25T22:25:51.592Z,6.80
2018-09-25T22:28:25.041Z,6.84
2018-09-25T22:30:58.617Z,6.78
2018-09-25T22:33:32.302Z,6.69
2018-09-25T22:36:06.136Z,6.61
2018-09-25T22:38:39.831Z,6.57
2018-09-25T22:41:13.627Z,6.65
2018-09-25T22:43:47.118Z,6.59
2018-09-25T22:46:20.580Z,6.63
2018-09-25T22:48:54.289Z,6.72
2018-09-25T22:51:27.737Z,6.87
2018-09-25T22:54:01.497Z,6.89
2018-09-25T22:56:35.097Z,6.68
2018-09-25T22:59:08.603Z,6.57
2018-09-25T23:01:42.259Z,6.35
2018-09-25T23:04:15.763Z,6.31
2018-09-25T23:06:49.504Z,6.36
2018-09-25T23:09:22.946Z,6.09
2018-09-25T23:11:56.555Z,5.91
2018-09-25T23:14:30.132Z,5.87
2018-09-25T23:17:03.784Z,5.90
2018-09-25T23:19:37.407Z,5.93
2018-09-25T23:22:10.983Z,6.03
2018-09-25T23:24:44.972Z,6.13
2018-09-25T23:27:18.508Z,6.10
2018-09-25T23:29:52.072Z,6.00
2018-09-25T23:32:25.759Z,5.93
2018-09-25T23:34:59.414Z,5.94
2018-09-25T23:37:32.934Z,5.95
2018-09-25T23:40:21.391Z,5.84
2018-09-25T23:42:56.849Z,5.90
2018-09-25T23:45:30.423Z,5.97
2018-09-25T23:48:06.730Z,6.04
2018-09-25T23:50:42.386Z,6.06
2018-09-25T23:54:17.048Z,6.03
2018-09-25T23:56:50.547Z,6.07
2018-09-25T23:59:24.975Z,6.19
